Chilcompton, United Kingdom
Current Conditions -  °F | °C
As of 12:20 PM on Friday 21 Nov 2014 (Local Time) from EGGD Reporting Station
Drizzle Drizzle  
Wind Chill: 37°   Ceiling: 200
Heat Index: 45°   Visibility: 1.1mi
Dew Point: 43°   Wind: 17mph
Humidity: 93%   Direction: 90°E
Pressure: 29.94"   Gusts: NA
Location:  51.26°N, 2.51°W
Report Text: EGGD 211220Z 09015KT 1800 -DZ BR OVC002 07/06 Q1014
Loading
Personal Weather Stations






























Interactive Weather Map New forecast layout! Learn more

10-Day Weather Forecast

Advertisements
Track Severe Weather on mobile